Washington Dulles International Airport
KIAD : now visible

Airfield :











YOU CAN JOIN US ON...

 
LOGIN :

Register | Disclaimer

   EN    FR    IT 

 









Legend :    VFR   Marginal VFR   IFR   Intensive IFR   Very Intensive IFR
Visi :
Ceiling :
>= 8 km
>= 3000ft
5 to 8 km
1000 to 3000 ft
1500m to 5 km
500 to 1000 ft
800 to 1500m
200 to 500 ft
< 800m
< 200 ft
Symbols :   Thunderstorms  Fog  Heavy snow  Heavy precipitations  Wind > 20 kt







- Airport Elevation : 312 ft
- IATA code : IAD


KIAD - Washington Dulles International

CURRENT METAR :
  • 160552Z 00000KT 10SM SCT110 SCT150 14/13 A3010 RMK AO2 SLP189 T01440128 10228 20144 56006

EXPIRED METARs :
  • 160452Z 00000KT 10SM FEW150 16/13 A3010 RMK AO2 SLP190 T01560128 403060156
  • 160352Z 00000KT 10SM FEW120 SCT250 17/13 A3011 RMK AO2 SLP193 T01720133

TAF KIAD
Valid from the 16 at 06:00 until the 17 at 12:00 UTC


160534Z 1606/1712 24005KT P6SM SCT060 BKN250
FM170000 05004KT P6SM SCT035 BKN060
FM170500 02007KT P6SM SCT020 BKN035
No reported NOTAMs for that airfield.



MET'MAP, your aeronautical weather chart ! - Copyright ORBIFLY December 2007 - Disclaimer

ORBIFLY MET'MAP TEAM :

Programming & Development : Alexandra Zaïnal
Concept & Development : Baudouin d'Aumeries
Co-Development & Prog : Marc-Olivier Méhu
Technical & hardware support : Manuel Goepfert

Contact : metmap@orbifly.com




SOURCES & CREDITS :

   NOAA       Earth
Advisory